Butlerville, Arkansas
Current Conditions -  °F | °C
As of 7:08 AM on Sunday 23 Nov 2014 (Local Time) from KLRF Reporting Station
Drizzle Drizzle  
Wind Chill: 57°   Ceiling: 400
Heat Index: 57°   Visibility: 9mi
Dew Point: 57°   Wind: 6mph
Humidity: 100%   Direction: 150°SSE
Pressure: 29.65"   Gusts: NA
Location:  34.9606°N, 91.8764°W
Report Text: KLRF 231308Z AUTO 15005KT 9SM -DZ OVC004 14/14 A2965 RMK AO2
Loading
Personal Weather Stations






























Interactive Weather Map New forecast layout! Learn more

10-Day Weather Forecast

Advertisements
Track Severe Weather on mobile